Latest Weather Observations for Wyndham Airport

IDD60801

Issued at 10:31 pm CST Saturday 31 January 2015 (issued every 30 minutes, with the page automatically refreshed every 10 minutes)

About weather observations | Map of weather stations | Latest weather observations for NT | Other Formats
Station Details ID: 001006 Name: WYNDHAM AERO Lat: -15.51 Lon: 128.15 Height: 3.8 m
Data from the previous 72 hours. | See also: Recent months for locations in Northern Territory
Date/Time
CST
Temp
°C
App
Temp
°C
Dew
Point
Rel
Hum
%
Delta-T
°C
Wind Press
QNH
hPa
Press
MSL
hPa
Rain
since 9 am
mm
Dir
 
Spd
km/h
Gust
km/h
Spd
kts
Gust
kts
31/10:30pm 30.8 36.3 24.0 67 4.7 ENE 2 9 1 5 1007.5 1007.5 0.0
31/10:00pm 30.9 35.5 24.1 67 4.7 E 7 7 4 4 1007.2 1007.2 0.0
31/09:30pm 30.9 34.9 23.8 66 4.9 E 9 9 5 5 1006.9 1006.9 0.0
31/09:00pm 31.3 35.0 23.9 64 5.1 ESE 11 13 6 7 1006.6 1006.6 0.0
31/08:30pm 31.6 35.4 23.4 61 5.7 E 9 13 5 7 1006.1 1006.1 0.0
31/08:00pm 32.2 35.2 23.4 59 6.1 E 13 15 7 8 1005.7 1005.7 0.0
31/07:30pm 33.2 37.6 23.5 56 6.8 NE 6 7 3 4 1005.1 1005.1 0.0
31/07:00pm 34.2 37.5 21.9 48 8.4 E 7 11 4 6 1004.7 1004.7 0.0
31/06:30pm 35.3 38.3 21.9 45 9.2 E 9 13 5 7 1004.1 1004.1 0.0
31/06:00pm 35.7 39.6 21.2 43 9.8 NNE 2 9 1 5 1003.9 1003.9 0.0
31/05:30pm 35.5 38.9 21.0 42 9.8 ESE 4 9 2 5 1004.0 1004.0 0.0
31/05:00pm 35.7 38.9 21.2 43 9.8 SE 6 11 3 6 1004.2 1004.2 0.0
31/04:30pm 35.6 39.3 21.5 44 9.6 S 4 9 2 5 1004.4 1004.4 0.0
31/04:00pm 35.5 39.0 22.1 45 9.2 SSE 7 11 4 6 1004.9 1004.9 0.0
31/03:30pm 35.3 38.5 22.3 47 9.0 SE 9 13 5 7 1005.2 1005.2 0.0
31/03:00pm 35.3 39.0 22.3 47 8.9 SW 6 11 3 6 1005.5 1005.5 0.0
31/02:30pm 34.8 38.3 22.8 49 8.3 SE 9 17 5 9 1005.9 1005.9 0.0
31/02:00pm 34.3 37.3 22.0 48 8.4 SSW 9 15 5 8 1006.3 1006.3 0.0
31/01:30pm 33.5 36.8 22.6 53 7.5 WSW 9 17 5 9 1006.7 1006.7 0.0
31/01:00pm 33.0 37.3 23.3 56 6.7 E 6 9 3 5 1007.2 1007.2 0.0
31/12:30pm 32.3 36.5 23.5 59 6.1 SW 7 17 4 9 1007.7 1007.7 0.0
31/12:00pm 32.0 36.1 24.6 65 5.2 SSW 11 17 6 9 1008.1 1008.1 0.0
31/11:30am 31.1 34.7 23.7 64 5.1 SW 11 15 6 8 1008.5 1008.5 0.0
31/11:00am 30.9 35.2 24.3 68 4.6 WSW 9 13 5 7 1008.7 1008.7 0.0
31/10:30am 29.9 33.8 24.3 72 3.9 SW 11 15 6 8 1008.8 1008.8 4.8
31/10:00am 29.4 33.3 24.9 77 3.2 SW 13 17 7 9 1009.1 1009.1 4.8
31/09:30am 28.5 32.3 24.7 80 2.7 SW 13 15 7 8 1009.0 1009.0 4.8
31/09:00am 28.1 32.4 24.9 83 2.2 W 11 15 6 8 1009.0 1009.0 4.8
31/08:30am 27.4 31.0 25.0 87 1.7 W 15 17 8 9 1009.0 1009.0 4.8
31/08:00am 26.4 33.1 25.4 94 0.7 CALM 0 0 0 0 1008.8 1008.8 4.8
31/07:30am 25.8 32.8 25.8 100 0.0 CALM 0 0 0 0 1008.0 1008.0 4.8
31/07:00am 25.2 31.8 25.2 100 0.0 CALM 0 0 0 0 1007.8 1007.8 4.8
31/06:30am 25.2 31.8 25.2 100 0.0 CALM 0 0 0 0 1007.7 1007.7 4.8
31/06:00am 25.1 31.5 24.9 99 0.1 CALM 0 0 0 0 1007.5 1007.5 4.8
31/05:30am 25.1 31.5 24.9 99 0.1 CALM 0 0 0 0 1007.2 1007.2 4.8
31/05:00am 25.3 31.8 25.1 99 0.1 CALM 0 0 0 0 1007.2 1007.2 4.8
31/04:30am 25.4 32.0 25.2 99 0.1 CALM 0 0 0 0 1007.2 1007.2 4.8
31/04:00am 25.1 31.3 24.6 97 0.3 CALM 0 0 0 0 1007.1 1007.1 4.8
31/03:30am 25.3 31.5 24.6 96 0.5 CALM 0 0 0 0 1007.4 1007.4 4.8
31/03:00am 25.2 31.2 24.3 95 0.6 CALM 0 0 0 0 1007.5 1007.5 4.8
31/02:30am 25.1 31.0 24.1 94 0.7 CALM 0 0 0 0 1007.6 1007.6 4.8
31/02:00am 25.1 31.1 24.2 95 0.6 CALM 0 0 0 0 1007.7 1007.7 4.8
31/01:30am 25.1 31.0 24.1 94 0.7 CALM 0 0 0 0 1008.0 1008.0 4.8
31/01:00am 25.0 30.5 24.0 94 0.7 WSW 2 7 1 4 1008.2 1008.2 4.8
31/12:30am 24.9 28.6 23.9 94 0.7 WSW 11 13 6 7 1008.5 1008.5 4.8
31/12:00am 24.9 28.8 24.2 96 0.5 SW 11 11 6 6 1008.3 1008.3 4.6
 
Date/Time
CST
Temp
°C
App
Temp
°C
Dew
Point
Rel
Hum
%
Delta-T
°C
Wind Press
QNH
hPa
Press
MSL
hPa
Rain
since 9 am
mm
Dir
 
Spd
km/h
Gust
km/h
Spd
kts
Gust
kts
30/11:30pm 24.9 29.5 24.2 96 0.5 W 7 9 4 5 1008.7 1008.7 4.6
30/11:00pm 24.9 29.3 24.4 97 0.3 SW 9 9 5 5 1009.0 1009.0 4.0
30/10:30pm 25.0 28.8 24.1 95 0.6 SSW 11 13 6 7 1009.0 1009.0 2.8
30/10:00pm 25.6 31.3 23.8 90 1.2 CALM 0 4 0 2 1008.6 1008.6 1.2
30/09:30pm 25.8 30.5 24.0 90 1.2 NNW 6 9 3 5 1008.5 1008.5 0.0
30/09:00pm 26.5 27.6 23.6 84 2.0 WNW 24 32 13 17 1008.4 1008.4 0.0
30/08:30pm 27.2 27.0 22.8 77 3.0 NW 28 46 15 25 1008.5 1008.5 0.0
30/08:26pm 28.3 30.1 22.5 71 3.9 NNW 17 46 9 25 1008.2 1008.2 0.0
30/08:00pm 29.1 32.8 23.3 71 4.0 NE 9 13 5 7 1006.7 1006.7 0.0
30/07:30pm 29.4 32.0 22.6 67 4.6 E 13 19 7 10 1006.4 1006.4 0.0
30/07:00pm 29.7 31.3 22.9 67 4.6 ENE 19 20 10 11 1005.7 1005.7 0.0
30/06:30pm 30.5 31.8 22.7 63 5.3 E 20 24 11 13 1005.0 1005.0 0.0
30/06:00pm 30.9 32.0 21.9 58 6.1 E 19 22 10 12 1005.0 1005.0 0.0
30/05:30pm 30.9 32.5 22.2 59 5.9 E 17 24 9 13 1004.4 1004.4 0.0
30/05:00pm 30.5 31.1 22.1 61 5.7 E 22 26 12 14 1004.6 1004.6 0.0
30/04:30pm 30.4 30.9 23.3 66 4.9 E 26 32 14 17 1004.6 1004.6 0.0
30/04:00pm 31.2 32.8 22.2 58 6.1 E 17 22 9 12 1004.3 1004.3 0.0
30/03:30pm 31.1 32.7 23.2 63 5.5 NE 20 26 11 14 1004.4 1004.4 0.0
30/03:00pm 31.2 32.1 23.3 63 5.4 NE 24 33 13 18 1004.7 1004.7 0.0
30/02:46pm 31.6 32.9 21.7 55 6.7 ENE 17 35 9 19 1004.9 1004.9 0.0
30/02:30pm 34.1 36.9 20.8 45 9.0 NNW 7 9 4 5 1004.9 1004.9 0.0
30/02:00pm 34.3 37.4 21.4 47 8.7 NNW 7 15 4 8 1005.3 1005.3 0.0
30/01:30pm 33.6 37.4 21.7 49 8.1 NNW 4 11 2 6 1005.7 1005.7 0.0
30/01:00pm 33.6 37.2 22.1 51 7.9 ESE 6 13 3 7 1006.5 1006.5 0.0
30/12:30pm 34.0 37.0 22.7 51 7.8 ESE 11 17 6 9 1007.4 1007.4 0.0
30/12:00pm 33.3 37.1 22.7 53 7.3 SSE 7 11 4 6 1007.7 1007.7 0.0
30/11:30am 32.3 36.6 22.7 57 6.6 ESE 4 11 2 6 1008.0 1008.0 0.0
30/11:00am 31.7 35.8 23.0 60 6.0 SW 6 9 3 5 1008.2 1008.2 0.0
30/10:30am 31.4 36.1 22.7 60 6.0 SE 2 7 1 4 1008.3 1008.3 10.2
30/10:00am 30.6 35.7 22.7 62 5.4 CALM 0 0 0 0 1008.1 1008.1 10.2
30/09:30am 30.0 35.1 22.7 65 5.0 CALM 0 0 0 0 1008.1 1008.1 10.2
30/09:00am 28.4 33.2 22.2 69 4.2 CALM 0 0 0 0 1007.8 1007.8 10.0
30/08:30am 27.4 31.9 23.0 77 3.0 WSW 4 6 2 3 1007.7 1007.7 10.0
30/08:00am 26.9 32.4 23.4 81 2.4 CALM 0 0 0 0 1007.6 1007.6 10.0
30/07:30am 26.5 32.1 23.6 84 2.0 CALM 0 0 0 0 1007.5 1007.5 10.0
30/07:00am 26.2 31.9 23.7 86 1.7 CALM 0 0 0 0 1007.0 1007.0 10.0
30/06:30am 26.3 31.5 24.2 88 1.5 W 4 7 2 4 1006.3 1006.3 10.0
30/06:00am 26.3 30.4 24.0 87 1.6 SW 9 13 5 7 1006.1 1006.1 10.0
30/05:30am 26.3 30.6 23.6 85 1.9 SSW 7 9 4 5 1005.8 1005.8 10.0
30/05:00am 26.4 30.5 23.3 83 2.1 SSW 7 11 4 6 1005.7 1005.7 10.0
30/04:30am 26.6 30.7 23.3 82 2.3 S 7 11 4 6 1005.9 1005.9 10.0
30/04:00am 26.5 31.8 23.0 81 2.4 CALM 0 0 0 0 1006.1 1006.1 10.0
30/03:30am 26.6 31.9 23.1 81 2.4 CALM 0 0 0 0 1006.1 1006.1 10.0
30/03:00am 27.3 31.5 23.5 80 2.6 WNW 7 9 4 5 1006.3 1006.3 10.0
30/02:30am 27.4 30.4 23.4 79 2.7 WNW 13 15 7 8 1006.6 1006.6 10.0
30/02:00am 27.6 31.4 23.4 78 2.9 W 9 11 5 6 1006.9 1006.9 10.0
30/01:30am 27.8 29.4 23.2 76 3.1 WSW 20 26 11 14 1007.3 1007.3 10.0
30/01:00am 28.4 35.1 25.4 84 2.1 CALM 0 0 0 0 1007.3 1007.3 10.0
30/12:30am 28.8 34.5 25.0 80 2.7 WNW 4 7 2 4 1007.6 1007.6 10.0
30/12:00am 29.2 33.4 24.1 74 3.5 WSW 9 11 5 6 1007.8 1007.8 10.0
 
Date/Time
CST
Temp
°C
App
Temp
°C
Dew
Point
Rel
Hum
%
Delta-T
°C
Wind Press
QNH
hPa
Press
MSL
hPa
Rain
since 9 am
mm
Dir
 
Spd
km/h
Gust
km/h
Spd
kts
Gust
kts
29/11:30pm 29.6 33.9 24.2 73 3.8 W 9 13 5 7 1008.1 1008.1 10.0
29/11:00pm 29.7 35.3 24.3 73 3.8 N 2 7 1 4 1008.0 1008.0 10.0
29/10:30pm 29.1 33.1 24.4 76 3.3 NE 11 13 6 7 1007.5 1007.5 10.0
29/10:00pm 30.0 34.3 24.2 71 4.0 NNE 9 13 5 7 1007.2 1007.2 10.0
29/09:30pm 29.6 33.7 24.0 72 3.9 E 9 11 5 6 1006.8 1006.8 10.0
29/09:00pm 29.3 33.2 24.8 77 3.1 E 13 13 7 7 1006.6 1006.6 10.0
29/08:30pm 29.6 33.5 24.9 76 3.3 E 13 15 7 8 1006.1 1006.1 10.0
29/08:00pm 29.8 34.0 24.7 74 3.6 E 11 15 6 8 1005.7 1005.7 10.0
29/07:30pm 30.1 34.8 24.9 73 3.7 E 9 9 5 5 1005.0 1005.0 10.0
29/07:00pm 30.1 34.9 24.5 72 3.9 SE 7 9 4 5 1004.4 1004.4 10.0
29/06:30pm 29.6 34.4 24.5 74 3.6 E 7 11 4 6 1003.9 1003.9 10.0
29/06:00pm 29.2 32.5 24.5 76 3.3 ENE 15 22 8 12 1003.6 1003.6 10.0
29/05:30pm 27.3 30.8 24.2 83 2.1 S 13 17 7 9 1003.6 1003.6 10.0
29/05:00pm 27.0 25.5 22.0 74 3.4 NE 33 43 18 23 1003.9 1003.9 4.8
29/04:56pm 28.2 26.8 22.2 70 4.0 NE 33 43 18 23 1003.7 1003.7 1.0
29/04:43pm 33.3 35.5 21.1 48 8.2 W 11 37 6 20 1003.0 1003.0 0.0
29/04:30pm 35.0 37.7 21.3 45 9.3 SSE 9 13 5 7 1002.8 1002.8 0.0
29/04:00pm 34.4 36.6 20.4 44 9.4 SW 9 13 5 7 1003.2 1003.2 0.0
29/03:30pm 34.7 37.4 20.3 43 9.7 SW 6 11 3 6 1003.6 1003.6 0.0
29/03:00pm 34.6 36.9 21.3 46 9.0 WNW 11 19 6 10 1004.0 1004.0 0.0
29/02:30pm 33.4 36.9 21.9 51 7.8 SSW 6 13 3 7 1004.6 1004.6 0.0
29/02:00pm 33.4 36.7 22.5 52 7.5 SSW 9 13 5 7 1005.2 1005.2 0.0
29/01:30pm 32.4 35.5 22.2 55 7.0 WNW 9 13 5 7 1005.7 1005.7 0.0
29/01:00pm 31.9 36.2 22.6 58 6.4 SW 4 11 2 6 1006.3 1006.3 0.0
29/12:30pm 31.0 34.9 22.9 62 5.6 W 7 11 4 6 1006.7 1006.7 0.0
29/12:00pm 31.4 35.3 23.0 61 5.8 S 7 13 4 7 1007.0 1007.0 0.0
29/11:30am 30.5 33.9 22.7 63 5.3 SSW 9 15 5 8 1007.5 1007.5 0.0
29/11:00am 30.3 34.0 23.2 65 4.9 SW 9 15 5 8 1007.6 1007.6 0.0
29/10:30am 29.4 33.0 23.1 69 4.3 SW 9 15 5 8 1007.9 1007.9 0.0
29/10:00am 28.7 32.1 22.7 70 4.1 W 9 15 5 8 1007.9 1007.9 0.0
29/09:30am 28.4 31.4 22.6 71 3.9 N 11 15 6 8 1007.8 1007.8 0.0
29/09:00am 28.0 31.1 22.9 74 3.5 NNW 11 17 6 9 1008.1 1008.1 0.0
29/08:30am 26.8 29.9 22.2 76 3.1 NNW 9 17 5 9 1008.1 1008.1 0.0
29/08:00am 26.0 28.1 21.7 77 2.9 NNE 13 22 7 12 1007.9 1007.9 0.0
29/07:30am 25.7 26.9 21.4 77 2.9 NNE 17 26 9 14 1007.6 1007.6 0.0
29/07:00am 25.6 27.2 22.1 81 2.3 NNE 17 22 9 12 1006.8 1006.8 0.0
29/06:30am 26.0 27.1 22.3 80 2.5 N 20 32 11 17 1006.2 1006.2 0.0
29/06:00am 26.7 32.5 24.0 85 1.9 CALM 0 0 0 0 1005.6 1005.6 0.0
29/05:30am 26.6 32.5 24.1 86 1.7 CALM 0 0 0 0 1005.0 1005.0 0.0
29/05:00am 26.6 32.1 24.1 86 1.7 NNW 2 6 1 3 1005.0 1005.0 0.0
29/04:30am 26.4 31.2 24.2 88 1.5 N 6 7 3 4 1004.9 1004.9 0.0
29/04:00am 26.3 30.9 24.2 88 1.4 N 7 9 4 5 1004.6 1004.6 0.0
29/03:30am 26.5 31.1 23.8 85 1.9 WNW 6 7 3 4 1004.6 1004.6 0.0
29/03:00am 26.5 30.5 23.8 85 1.9 W 9 13 5 7 1004.8 1004.8 0.0
29/02:30am 26.7 31.0 24.2 86 1.7 WSW 9 11 5 6 1005.1 1005.1 0.0
29/02:00am 26.7 31.1 24.5 88 1.5 SW 9 11 5 6 1005.2 1005.2 0.0
29/01:30am 26.5 32.5 24.2 87 1.6 CALM 0 0 0 0 1005.5 1005.5 0.0
29/01:00am 26.6 31.7 24.1 86 1.7 W 4 9 2 5 1005.8 1005.8 0.0
29/12:30am 26.7 31.5 24.4 87 1.6 WSW 7 11 4 6 1006.5 1006.5 0.0

Other Formats:

Comma delimited format used in spreadsheet applications
http://www.bom.gov.au/fwo/IDD60801/IDD60801.95214.axf

JavaScript Object Notation format (JSON) in row-major order
http://www.bom.gov.au/fwo/IDD60801/IDD60801.95214.json